Walworth, NY

4:06 AM EDT on October 23, 2014 (GMT -0400)
Penn Yan | Change Station
CLOSE
Current Station
Airport
Location: Penn Yan,
Elevation: 902 ft
Nearby Weather Stations

Elev 902 ft 42.64 °N, 77.05 °W | Updated 13 minutes ago

Partly Cloudy
Partly Cloudy
46 °F
Feels Like 42 °F
N
7
Wind Variable Wind from NNW
Gusts 17 mph

Today
High -- | Low -- °F
--% Chance of Precip.
Yesterday
High -- | Low -- °F
Precip. -- in
7:32 AM 6:13 PM
Waning Crescent, 0% visible
Pressure 30.04 in
Visibility 10.0 miles
Clouds Mostly Cloudy 7000 ft
Windchill 42 °F
Dew Point 40 °F
Humidity 79%
Rainfall 0.00 in
Snow Depth Not available.
UV 0 out of 12
Pollen .10 out of 12
Air Quality Not available.
Flu Activity Sporadic
METAR KPEO 230753Z AUTO 33006G15KT 10SM BKN070 08/04 A3003 RMK AO2 SLP173 T00780044

More Conditions Fewer Conditions

Pressure 30.04 in
Visibility 10.0 miles
Clouds Mostly Cloudy 7000 ft
Windchill 42 °F
Dew Point 40 °F
Humidity 79%
Rainfall 0.00 in
Snow Depth Not available.
UV 0 out of 12
Pollen .10 out of 12
Air Quality Not available.
Flu Activity Sporadic
METAR KPEO 230753Z AUTO 33006G15KT 10SM BKN070 08/04 A3003 RMK AO2 SLP173 T00780044

More Conditions Fewer Conditions

10-Day Weather Forecast

Almanac

Astronomy

Oct. 23, 2014 Rise Set
Actual Time 7:32 AM EDT 6:13 PM EDT
Civil Twilight 7:03 AM EDT 6:42 PM EDT
Nautical Twilight 6:30 AM EDT 7:15 PM EDT
Astronomical Twilight 5:57 AM EDT 7:48 PM EDT
Moon 7:09 AM EDT 6:14 PM EDT
Length of Visible Light 11h 39m
Length of Day
10h 41m
Tomorrow will be 2m 44s shorter.
Waning Crescent, 0% of the Moon is Illuminated
Today
Waning Crescent
Oct 23
New
Oct 30
First Quarter
Nov 6
Full
Nov 14
Last Quarter

Today's Extremes

State Highs State Lows

Community

WunderPhotos

Upload Photos

1,764,194 photos uploaded!

Nearby

Air Quality

  Air Quality AQ Index Pollutant
Thursday Good
PM2.5

Snow Depth

Station Depth Elevation
No new snow has been reported.

Earthquake Activity

City Distance Mag. Time & Date
No recent earthquake activity has been reported nearby.
Minimum magnitude displayed is 2.5.

Coastal Water Temperatures

Place Temperature
Buffalo, NY 55.9 °F
Alexandria Bay, NY 57.0 °F

Nearby Weather Stations